Time;durP1;ratioP1;P1;durP2;ratioP2;P2;SDS_P1;SDS_P2;PMS_P1;PMS_P2;Temp;Humidity;BMP_temperature;BMP_pressure;BME280_temperature;BME280_humidity;BME280_pressure;Samples;Min_cycle;Max_cycle;Signal;HPM_P1;HPM_P2
2023/12/09 00:02:04;;;;;;;2.80;2.60;;;17.40;45.60;;;;;;5015732;28;20204;-84
2023/12/09 00:04:31;;;;;;;2.80;2.60;;;17.40;45.60;;;;;;5019421;28;20212;-84
2023/12/09 00:06:58;;;;;;;3.20;2.90;;;17.40;45.60;;;;;;5019244;28;20216;-84
2023/12/09 00:09:27;;;;;;;2.88;2.67;;;17.40;45.60;;;;;;5016758;28;20220;-84
2023/12/09 00:11:54;;;;;;;3.40;3.10;;;17.40;45.60;;;;;;5015862;28;20295;-84
2023/12/09 00:14:21;;;;;;;3.50;3.20;;;17.40;45.60;;;;;;5003494;28;20193;-84
2023/12/09 00:16:49;;;;;;;3.10;2.80;;;17.40;45.70;;;;;;5036762;28;20208;-84
2023/12/09 00:19:16;;;;;;;2.92;2.72;;;17.40;45.70;;;;;;5038440;28;20205;-84
2023/12/09 00:21:44;;;;;;;3.45;2.90;;;17.40;45.70;;;;;;5038582;28;20199;-84
2023/12/09 00:24:11;;;;;;;2.97;2.78;;;17.40;45.80;;;;;;5022364;28;20192;-84
2023/12/09 00:26:39;;;;;;;2.95;2.75;;;17.40;45.70;;;;;;5029531;28;20247;-84
2023/12/09 00:29:06;;;;;;;3.15;2.85;;;17.30;45.70;;;;;;5013833;28;20574;-84
2023/12/09 00:31:34;;;;;;;3.00;2.80;;;17.30;45.70;;;;;;5015531;28;20678;-84
2023/12/09 00:34:01;;;;;;;2.97;2.78;;;17.30;45.80;;;;;;5017461;28;20205;-84
2023/12/09 00:36:28;;;;;;;2.75;2.53;;;17.30;45.80;;;;;;5018340;28;20311;-84
2023/12/09 00:38:55;;;;;;;3.42;2.85;;;17.30;45.80;;;;;;5017442;28;20613;-84
2023/12/09 00:41:21;;;;;;;2.80;2.60;;;17.30;45.80;;;;;;5017188;28;20243;-84
2023/12/09 00:43:50;;;;;;;3.10;2.80;;;17.30;45.80;;;;;;5017184;28;20295;-84
2023/12/09 00:46:17;;;;;;;2.65;2.45;;;17.30;45.90;;;;;;5020873;28;20240;-84
2023/12/09 00:48:45;;;;;;;2.90;2.70;;;17.30;45.80;;;;;;5019351;28;20227;-84
2023/12/09 00:51:12;;;;;;;3.38;3.00;;;17.30;45.80;;;;;;5018335;28;20213;-84
2023/12/09 00:53:38;;;;;;;3.35;2.92;;;17.30;45.80;;;;;;5019455;28;20246;-84
2023/12/09 00:56:06;;;;;;;3.08;2.85;;;17.30;45.90;;;;;;5002340;28;20225;-85
2023/12/09 00:58:33;;;;;;;2.80;2.60;;;17.30;45.90;;;;;;5017900;28;20291;-84
2023/12/09 01:01:01;;;;;;;2.60;2.40;;;17.30;45.90;;;;;;5018149;28;20200;-84
2023/12/09 01:03:28;;;;;;;3.00;2.80;;;17.20;45.80;;;;;;5018070;28;20303;-84
2023/12/09 01:05:55;;;;;;;3.20;2.83;;;17.20;45.80;;;;;;5017824;28;20252;-84
2023/12/09 01:08:25;;;;;;;3.70;3.22;;;17.30;45.90;;;;;;5018139;28;20656;-84
2023/12/09 01:10:54;;;;;;;3.10;2.70;;;17.20;45.80;;;;;;5018932;28;20324;-84
2023/12/09 01:13:21;;;;;;;2.92;2.72;;;17.20;45.90;;;;;;5017021;28;20247;-84
2023/12/09 01:15:48;;;;;;;3.00;2.80;;;17.20;45.90;;;;;;5034387;23;20304;-80
2023/12/09 01:18:17;;;;;;;3.10;2.90;;;17.20;45.90;;;;;;5028068;28;20173;-80
2023/12/09 01:20:44;;;;;;;3.40;3.10;;;17.10;45.90;;;;;;5041486;28;20208;-80
2023/12/09 01:23:11;;;;;;;2.70;2.50;;;17.20;46.00;;;;;;5017892;28;20227;-80
2023/12/09 01:25:38;;;;;;;2.85;2.65;;;17.20;45.90;;;;;;5016951;28;20204;-80
2023/12/09 01:28:06;;;;;;;2.78;2.58;;;17.10;45.90;;;;;;5018144;28;20200;-80
2023/12/09 01:30:33;;;;;;;2.70;2.50;;;17.10;45.90;;;;;;5017189;28;20224;-80
2023/12/09 01:33:00;;;;;;;3.05;2.85;;;17.10;45.90;;;;;;5018981;28;20201;-80
2023/12/09 01:35:28;;;;;;;2.83;2.63;;;17.10;45.90;;;;;;5017970;28;20216;-80
2023/12/09 01:37:56;;;;;;;2.88;2.63;;;17.10;45.90;;;;;;5018431;28;20203;-80
2023/12/09 01:40:23;;;;;;;2.70;2.50;;;17.10;45.80;;;;;;5017729;28;20288;-80
2023/12/09 01:42:50;;;;;;;2.70;2.50;;;17.10;45.90;;;;;;5016778;28;20201;-80
2023/12/09 01:45:17;;;;;;;3.03;2.60;;;17.10;45.90;;;;;;5017782;28;20659;-80
2023/12/09 01:47:44;;;;;;;2.80;2.60;;;17.10;46.00;;;;;;5016193;28;20221;-80
2023/12/09 01:50:11;;;;;;;2.88;2.67;;;17.10;46.00;;;;;;5016854;28;20204;-80
2023/12/09 01:52:40;;;;;;;3.45;2.90;;;17.10;46.00;;;;;;5016224;28;20207;-80
2023/12/09 01:55:07;;;;;;;2.90;2.67;;;17.00;45.90;;;;;;5015566;28;20205;-80
2023/12/09 01:57:34;;;;;;;3.00;2.80;;;17.00;46.00;;;;;;5015621;28;20267;-80
2023/12/09 02:00:02;;;;;;;2.60;2.40;;;17.00;46.00;;;;;;5016142;28;20197;-81
2023/12/09 02:02:31;;;;;;;3.10;2.90;;;17.00;46.00;;;;;;5016607;28;20196;-81
2023/12/09 02:04:58;;;;;;;3.10;2.90;;;17.00;46.10;;;;;;5015383;28;20251;-81
2023/12/09 02:07:25;;;;;;;2.70;2.50;;;17.00;46.30;;;;;;5015206;28;20264;-81
2023/12/09 02:09:53;;;;;;;2.85;2.65;;;17.00;46.10;;;;;;5015714;28;20203;-81
2023/12/09 02:12:23;;;;;;;2.88;2.58;;;16.90;46.00;;;;;;5015435;28;20304;-81
2023/12/09 02:14:54;;;;;;;2.60;2.40;;;16.90;46.10;;;;;;5015456;28;20626;-81
2023/12/09 02:17:22;;;;;;;3.05;2.75;;;16.90;46.20;;;;;;5015117;28;20216;-81
2023/12/09 02:19:49;;;;;;;3.97;2.60;;;16.90;46.20;;;;;;5015379;28;20201;-81
2023/12/09 02:22:16;;;;;;;2.85;2.60;;;16.90;46.20;;;;;;5015858;28;20205;-81
2023/12/09 02:24:44;;;;;;;2.60;2.40;;;16.90;46.20;;;;;;5030009;28;20236;-81
2023/12/09 02:27:12;;;;;;;3.05;2.85;;;16.90;46.20;;;;;;5029769;28;20267;-81
2023/12/09 02:29:48;;;;;;;2.60;2.40;;;16.90;46.30;;;;;;5028294;28;20211;-81
2023/12/09 02:32:15;;;;;;;2.70;2.50;;;16.90;46.30;;;;;;5021244;28;20397;-81
2023/12/09 02:34:42;;;;;;;2.70;2.50;;;16.80;46.20;;;;;;5020017;28;20197;-81
2023/12/09 02:37:09;;;;;;;3.00;2.72;;;16.80;46.20;;;;;;5018153;28;20280;-81
2023/12/09 02:39:36;;;;;;;2.83;2.63;;;16.80;46.20;;;;;;5017550;28;20590;-80
2023/12/09 02:42:06;;;;;;;2.97;2.70;;;16.80;46.20;;;;;;5001439;28;20189;-80
2023/12/09 02:44:33;;;;;;;2.80;2.60;;;16.80;46.20;;;;;;5016985;28;20208;-80
2023/12/09 02:47:00;;;;;;;2.58;2.38;;;16.80;46.30;;;;;;5016474;28;20217;-80
2023/12/09 02:49:27;;;;;;;2.95;2.65;;;16.80;46.30;;;;;;5016170;28;20651;-80
2023/12/09 02:51:54;;;;;;;2.60;2.40;;;16.80;46.30;;;;;;4999717;28;20220;-80
2023/12/09 02:54:21;;;;;;;3.65;2.53;;;16.80;46.40;;;;;;4999631;28;20196;-80
2023/12/09 02:56:48;;;;;;;2.72;2.53;;;16.80;47.00;;;;;;4998600;28;20220;-80
2023/12/09 02:59:17;;;;;;;2.70;2.50;;;16.80;46.30;;;;;;5015441;28;20192;-80
2023/12/09 03:01:44;;;;;;;2.83;2.63;;;16.70;46.30;;;;;;5014707;28;20228;-80
2023/12/09 03:04:11;;;;;;;2.80;2.60;;;16.80;46.40;;;;;;5014566;28;20646;-80
2023/12/09 03:06:38;;;;;;;2.72;2.53;;;16.70;46.40;;;;;;5014808;28;20224;-80
2023/12/09 03:09:05;;;;;;;2.72;2.47;;;16.70;46.40;;;;;;5014749;28;20207;-80
2023/12/09 03:11:32;;;;;;;2.45;2.25;;;16.70;46.40;;;;;;5014401;28;20704;-80
2023/12/09 03:13:58;;;;;;;2.85;2.58;;;16.70;46.50;;;;;;5014388;28;20613;-80
2023/12/09 03:16:27;;;;;;;2.72;2.53;;;16.60;46.40;;;;;;5014151;28;20256;-81
2023/12/09 03:18:54;;;;;;;2.63;2.42;;;16.70;46.50;;;;;;5014331;28;20243;-81
2023/12/09 03:21:22;;;;;;;2.65;2.38;;;16.70;46.50;;;;;;5014652;28;20196;-81
2023/12/09 03:23:48;;;;;;;2.60;2.40;;;16.70;46.50;;;;;;5014569;28;20212;-81
2023/12/09 03:26:16;;;;;;;3.00;2.70;;;16.70;46.50;;;;;;5013624;28;20695;-81
2023/12/09 03:28:43;;;;;;;2.50;2.30;;;16.70;46.50;;;;;;5013848;28;20258;-81
2023/12/09 03:31:10;;;;;;;2.72;2.53;;;16.60;46.40;;;;;;5013632;28;20216;-81
2023/12/09 03:33:39;;;;;;;2.80;2.58;;;16.60;46.40;;;;;;5014360;28;20192;-81
2023/12/09 03:36:07;;;;;;;3.00;2.70;;;16.70;46.50;;;;;;5013518;28;20220;-81
2023/12/09 03:38:34;;;;;;;2.60;2.40;;;16.60;46.40;;;;;;5013835;28;20755;-81
2023/12/09 03:41:02;;;;;;;2.85;2.65;;;16.60;46.40;;;;;;5013991;28;20224;-81
2023/12/09 03:43:30;;;;;;;2.45;2.25;;;16.60;46.40;;;;;;5013901;28;20281;-81
2023/12/09 03:45:58;;;;;;;2.50;2.30;;;16.60;46.40;;;;;;5013510;28;20220;-81
2023/12/09 03:48:25;;;;;;;2.83;2.45;;;16.60;46.50;;;;;;5013723;28;20200;-81
2023/12/09 03:50:53;;;;;;;2.40;2.20;;;16.60;47.00;;;;;;5013748;28;20200;-81
2023/12/09 03:53:20;;;;;;;2.30;2.20;;;16.60;46.40;;;;;;5013545;28;20196;-81
2023/12/09 03:55:49;;;;;;;2.40;2.20;;;16.60;46.50;;;;;;4998152;28;20224;-81
2023/12/09 03:58:16;;;;;;;3.55;2.63;;;16.60;46.50;;;;;;5014015;28;20271;-81
2023/12/09 04:00:43;;;;;;;2.63;2.42;;;16.60;46.50;;;;;;5013935;28;20205;-81
2023/12/09 04:03:10;;;;;;;2.70;2.50;;;16.50;46.50;;;;;;5014426;28;20288;-81
2023/12/09 04:05:38;;;;;;;2.50;2.30;;;16.60;46.50;;;;;;4997478;28;20208;-81
2023/12/09 04:08:07;;;;;;;2.50;2.30;;;16.50;46.40;;;;;;5013838;28;20200;-81
2023/12/09 04:10:33;;;;;;;2.55;2.35;;;16.50;46.40;;;;;;4997550;28;20663;-81
2023/12/09 04:13:00;;;;;;;2.20;2.00;;;16.50;46.30;;;;;;5014042;28;20254;-81
2023/12/09 04:15:28;;;;;;;2.30;2.10;;;16.50;46.40;;;;;;5013876;28;20228;-81
2023/12/09 04:17:55;;;;;;;2.47;2.30;;;16.50;46.30;;;;;;5013600;28;20197;-81
2023/12/09 04:20:22;;;;;;;2.45;2.25;;;16.40;46.30;;;;;;5014124;28;20212;-81
2023/12/09 04:22:50;;;;;;;2.40;2.20;;;16.40;46.30;;;;;;5013451;28;20220;-81
2023/12/09 04:25:18;;;;;;;2.58;2.38;;;16.40;46.30;;;;;;5013331;28;20207;-81
2023/12/09 04:27:45;;;;;;;2.20;2.00;;;16.30;46.30;;;;;;5013317;28;20232;-81
2023/12/09 04:30:13;;;;;;;2.40;2.15;;;16.30;46.30;;;;;;5013296;28;20196;-81
2023/12/09 04:32:41;;;;;;;2.38;2.20;;;16.30;46.30;;;;;;5013802;28;20224;-82
2023/12/09 04:35:09;;;;;;;2.78;2.05;;;16.30;46.20;;;;;;4997475;28;20205;-81
2023/12/09 04:37:36;;;;;;;3.17;2.20;;;16.30;46.10;;;;;;5013160;28;20225;-81
2023/12/09 04:40:04;;;;;;;2.25;2.05;;;16.40;46.20;;;;;;4996920;28;20197;-81
2023/12/09 04:42:32;;;;;;;2.47;2.03;;;16.40;46.80;;;;;;5014758;28;20185;-82
2023/12/09 04:45:00;;;;;;;2.10;2.00;;;16.40;46.10;;;;;;5013300;28;20200;-81
2023/12/09 04:47:27;;;;;;;2.63;2.08;;;16.40;46.00;;;;;;5004523;28;20288;-81
2023/12/09 04:49:54;;;;;;;2.10;1.98;;;16.40;46.10;;;;;;5028023;28;20272;-81
2023/12/09 04:52:26;;;;;;;2.75;2.00;;;16.40;46.00;;;;;;5027956;28;20223;-81
2023/12/09 04:55:00;;;;;;;2.92;2.13;;;16.40;46.00;;;;;;5020220;28;20255;-81
2023/12/09 04:57:28;;;;;;;2.35;2.15;;;16.50;45.90;;;;;;5018071;28;20224;-81
2023/12/09 04:59:56;;;;;;;2.00;1.90;;;16.50;46.00;;;;;;5008921;28;20216;-81
2023/12/09 05:02:24;;;;;;;1.90;1.80;;;16.40;45.90;;;;;;5037767;28;20173;-81
2023/12/09 05:04:52;;;;;;;2.40;2.17;;;16.50;46.00;;;;;;5032111;28;20191;-81
2023/12/09 05:07:19;;;;;;;2.40;2.20;;;16.40;46.00;;;;;;5016919;28;20259;-81
2023/12/09 05:09:46;;;;;;;2.50;2.30;;;16.40;46.00;;;;;;5015831;28;20200;-81
2023/12/09 05:12:14;;;;;;;2.10;2.00;;;16.40;46.10;;;;;;5016243;28;20216;-81
2023/12/09 05:14:41;;;;;;;2.33;2.10;;;16.40;46.20;;;;;;5016106;28;20664;-82
2023/12/09 05:17:09;;;;;;;2.50;2.30;;;16.40;46.10;;;;;;5014649;28;20680;-81
2023/12/09 05:19:36;;;;;;;2.20;2.08;;;16.40;46.20;;;;;;5016238;28;20208;-81
2023/12/09 05:22:03;;;;;;;2.40;2.20;;;16.30;46.10;;;;;;4999754;28;20336;-81
2023/12/09 05:24:30;;;;;;;2.40;2.20;;;16.40;46.20;;;;;;5016307;28;20193;-81
2023/12/09 05:26:58;;;;;;;3.25;2.20;;;16.30;46.20;;;;;;5000064;28;20220;-81
2023/12/09 05:29:25;;;;;;;2.00;1.90;;;16.30;46.30;;;;;;5016078;28;20317;-81
2023/12/09 05:31:52;;;;;;;2.45;2.25;;;16.30;46.40;;;;;;5016164;28;20278;-81
2023/12/09 05:34:20;;;;;;;2.03;1.92;;;16.40;46.20;;;;;;5016182;28;20204;-81
2023/12/09 05:36:48;;;;;;;2.00;1.90;;;16.40;46.00;;;;;;5016150;28;20220;-81
2023/12/09 05:39:15;;;;;;;4.30;2.13;;;16.50;45.90;;;;;;5016636;28;20236;-81
2023/12/09 05:41:42;;;;;;;2.55;2.17;;;16.50;46.00;;;;;;5016068;28;20275;-81
2023/12/09 05:44:09;;;;;;;2.25;2.05;;;16.60;45.90;;;;;;5016929;28;20625;-81
2023/12/09 05:46:37;;;;;;;2.40;2.20;;;16.60;45.80;;;;;;5000093;28;20587;-81
2023/12/09 05:49:04;;;;;;;2.00;1.90;;;16.60;45.80;;;;;;5015940;28;20200;-81
2023/12/09 05:51:32;;;;;;;2.20;2.00;;;16.60;45.70;;;;;;5015994;28;20643;-81
2023/12/09 05:53:59;;;;;;;2.20;2.00;;;16.70;45.60;;;;;;5015966;28;20204;-81
2023/12/09 05:56:26;;;;;;;2.00;1.90;;;16.70;45.60;;;;;;5015515;28;20219;-81
2023/12/09 05:58:53;;;;;;;2.10;1.90;;;16.70;45.50;;;;;;5015486;28;20201;-79
2023/12/09 06:01:20;;;;;;;2.63;1.80;;;16.80;45.70;;;;;;5015867;28;20201;-79
2023/12/09 06:03:47;;;;;;;1.90;1.77;;;16.80;45.60;;;;;;5015575;28;20717;-79
2023/12/09 06:06:14;;;;;;;2.28;2.00;;;16.80;45.50;;;;;;5016164;28;20636;-79
2023/12/09 06:08:43;;;;;;;2.13;1.85;;;16.80;45.40;;;;;;5015628;28;20196;-79
2023/12/09 06:11:10;;;;;;;1.98;1.73;;;16.80;45.40;;;;;;5015617;28;20220;-80
2023/12/09 06:13:37;;;;;;;2.40;2.10;;;16.90;45.40;;;;;;4999443;28;20224;-79
2023/12/09 06:16:05;;;;;;;1.90;1.80;;;16.80;45.30;;;;;;5016453;28;20229;-79
2023/12/09 06:18:32;;;;;;;1.80;1.70;;;16.80;45.40;;;;;;5015976;28;20192;-79
2023/12/09 06:20:59;;;;;;;2.13;1.52;;;16.90;45.40;;;;;;4999150;28;20208;-81
2023/12/09 06:23:26;;;;;;;1.80;1.70;;;16.90;45.30;;;;;;5015192;28;20657;-81
2023/12/09 06:25:54;;;;;;;1.77;1.67;;;16.90;45.30;;;;;;4998661;28;20225;-81
2023/12/09 06:28:21;;;;;;;1.98;1.88;;;16.90;45.30;;;;;;5014385;28;20193;-81
2023/12/09 06:30:49;;;;;;;2.10;1.88;;;16.90;45.30;;;;;;5014989;28;20655;-81
2023/12/09 06:33:15;;;;;;;1.98;1.63;;;16.90;45.10;;;;;;5015001;28;20228;-81
2023/12/09 06:35:43;;;;;;;1.70;1.60;;;16.90;45.20;;;;;;5015103;28;20232;-81
2023/12/09 06:38:09;;;;;;;2.15;1.73;;;16.90;45.10;;;;;;5014852;28;20197;-81
2023/12/09 06:40:36;;;;;;;2.00;1.80;;;16.90;45.10;;;;;;5015421;28;20251;-81
2023/12/09 06:43:05;;;;;;;1.77;1.67;;;16.90;45.00;;;;;;4999364;28;20216;-81
2023/12/09 06:45:32;;;;;;;2.40;1.92;;;16.90;45.20;;;;;;5015052;28;20200;-81
2023/12/09 06:47:59;;;;;;;1.63;1.50;;;16.90;45.40;;;;;;5015208;28;20197;-81
2023/12/09 06:50:26;;;;;;;1.80;1.70;;;16.90;45.40;;;;;;5015676;28;20197;-81
2023/12/09 06:52:53;;;;;;;2.10;1.70;;;16.80;45.40;;;;;;5015547;28;20742;-81
2023/12/09 06:55:20;;;;;;;1.65;1.55;;;16.90;45.50;;;;;;5014711;28;20681;-81
2023/12/09 06:57:47;;;;;;;1.90;1.80;;;16.90;45.50;;;;;;5015483;28;20600;-81
2023/12/09 07:00:16;;;;;;;1.70;1.60;;;16.90;45.40;;;;;;4998625;28;20209;-81
2023/12/09 07:02:44;;;;;;;1.80;1.70;;;16.90;45.40;;;;;;5015167;28;20595;-81
2023/12/09 07:05:12;;;;;;;2.08;1.80;;;17.00;45.50;;;;;;4982720;28;20197;-81
2023/12/09 07:07:39;;;;;;;1.73;1.60;;;16.90;45.50;;;;;;5014752;28;20258;-81
2023/12/09 07:10:07;;;;;;;1.75;1.65;;;16.90;45.60;;;;;;5015153;28;20251;-81
2023/12/09 07:12:35;;;;;;;1.80;1.70;;;16.90;45.40;;;;;;4998281;28;20212;-81
2023/12/09 07:15:02;;;;;;;1.73;1.60;;;16.90;45.20;;;;;;5030432;23;20233;-82
2023/12/09 07:17:30;;;;;;;1.70;1.60;;;17.00;45.20;;;;;;5020325;28;20221;-82
2023/12/09 07:19:59;;;;;;;1.95;1.70;;;17.00;45.90;;;;;;5014631;28;20204;-82
2023/12/09 07:22:26;;;;;;;1.50;1.40;;;17.00;45.20;;;;;;5014209;28;20201;-82
2023/12/09 07:24:53;;;;;;;1.60;1.50;;;17.00;45.30;;;;;;4997904;28;20546;-82
2023/12/09 07:27:20;;;;;;;1.77;1.67;;;17.10;45.30;;;;;;4998094;28;20220;-82
2023/12/09 07:29:47;;;;;;;1.70;1.60;;;17.00;45.20;;;;;;5014426;28;20288;-82
2023/12/09 07:32:14;;;;;;;1.67;1.50;;;17.10;45.10;;;;;;5014376;28;20213;-82
2023/12/09 07:34:42;;;;;;;2.40;1.60;;;17.10;45.10;;;;;;5013943;28;20655;-82
2023/12/09 07:37:14;;;;;;;1.70;1.60;;;17.10;45.00;;;;;;5015983;28;20224;-82
2023/12/09 07:39:42;;;;;;;1.50;1.40;;;17.20;45.00;;;;;;5014024;28;20197;-82
2023/12/09 07:42:09;;;;;;;1.65;1.55;;;17.10;45.00;;;;;;5013687;28;20215;-82
2023/12/09 07:44:36;;;;;;;1.70;1.60;;;17.20;45.20;;;;;;5014363;28;20208;-82
2023/12/09 07:47:04;;;;;;;2.58;1.70;;;17.20;45.10;;;;;;5014211;28;20240;-83
2023/12/09 07:49:32;;;;;;;1.75;1.60;;;17.20;45.00;;;;;;4998055;28;20200;-83
2023/12/09 07:52:00;;;;;;;1.50;1.40;;;17.20;45.20;;;;;;5014015;28;20259;-82
2023/12/09 07:54:28;;;;;;;1.73;1.63;;;17.10;45.10;;;;;;5013537;28;20287;-82
2023/12/09 07:56:54;;;;;;;2.10;1.90;;;17.20;45.20;;;;;;5013921;28;20248;-82
2023/12/09 07:59:21;;;;;;;2.42;1.90;;;17.10;45.10;;;;;;5013400;28;20200;-82
2023/12/09 08:01:48;;;;;;;1.98;1.85;;;17.20;45.10;;;;;;5013720;28;20750;-82
2023/12/09 08:04:15;;;;;;;2.10;1.90;;;17.20;45.10;;;;;;5013476;28;20189;-82
2023/12/09 08:06:42;;;;;;;2.65;2.10;;;17.20;45.00;;;;;;5014545;28;20290;-82
2023/12/09 08:09:11;;;;;;;2.10;1.90;;;17.20;45.00;;;;;;5013129;28;20263;-82
2023/12/09 08:11:38;;;;;;;2.30;2.10;;;17.20;45.00;;;;;;5013090;28;20632;-82
2023/12/09 08:14:05;;;;;;;2.92;2.03;;;17.20;45.00;;;;;;5012989;28;20216;-82
2023/12/09 08:16:32;;;;;;;2.28;2.08;;;17.20;45.00;;;;;;5013218;28;20231;-82
2023/12/09 08:18:59;;;;;;;2.22;1.98;;;17.30;45.10;;;;;;5013468;28;20656;-82
2023/12/09 08:21:26;;;;;;;1.92;1.83;;;17.30;45.20;;;;;;5013714;28;20207;-82
2023/12/09 08:23:54;;;;;;;2.20;2.00;;;17.30;45.00;;;;;;4997365;28;20567;-82
2023/12/09 08:26:22;;;;;;;2.30;2.00;;;17.30;45.00;;;;;;5013137;28;20244;-82
2023/12/09 08:28:49;;;;;;;1.80;1.70;;;17.40;45.10;;;;;;5013104;28;20246;-82
2023/12/09 08:31:16;;;;;;;2.13;1.92;;;17.40;45.10;;;;;;5013214;28;20287;-82
2023/12/09 08:33:43;;;;;;;2.22;1.83;;;17.30;45.00;;;;;;5015077;28;20219;-82
2023/12/09 08:36:10;;;;;;;1.85;1.70;;;17.40;45.00;;;;;;4997974;28;20713;-82
2023/12/09 08:38:37;;;;;;;1.80;1.70;;;17.40;45.00;;;;;;5014876;28;20271;-83
2023/12/09 08:41:04;;;;;;;2.28;2.03;;;17.50;44.90;;;;;;5017212;28;20335;-83
2023/12/09 08:43:33;;;;;;;1.70;1.60;;;17.50;44.90;;;;;;5016209;28;20201;-83
2023/12/09 08:46:00;;;;;;;1.80;1.70;;;17.50;44.90;;;;;;5014928;28;20221;-83
2023/12/09 08:48:26;;;;;;;1.95;1.85;;;17.50;44.90;;;;;;5015085;28;20210;-82
2023/12/09 08:50:53;;;;;;;2.03;1.90;;;17.50;44.90;;;;;;5014413;28;20291;-82
2023/12/09 08:53:20;;;;;;;2.25;2.00;;;17.50;44.90;;;;;;5017804;28;20684;-82
2023/12/09 08:55:48;;;;;;;1.98;1.85;;;17.50;44.90;;;;;;5017815;28;20771;-83
2023/12/09 08:58:16;;;;;;;2.72;1.90;;;17.50;45.00;;;;;;5018641;28;20200;-82
2023/12/09 09:00:44;;;;;;;1.92;1.80;;;17.50;44.90;;;;;;5016753;28;20205;-82
2023/12/09 09:03:11;;;;;;;2.20;2.00;;;17.60;45.00;;;;;;5018184;28;20201;-82
2023/12/09 09:05:38;;;;;;;2.90;2.00;;;17.60;44.90;;;;;;5016947;28;20232;-82
2023/12/09 09:08:06;;;;;;;1.92;1.83;;;17.60;44.90;;;;;;5017814;28;20232;-82
2023/12/09 09:10:33;;;;;;;3.00;2.50;;;17.60;44.80;;;;;;5016953;28;20196;-82
2023/12/09 09:13:00;;;;;;;2.55;2.35;;;17.60;44.70;;;;;;5017590;28;20221;-82
2023/12/09 09:15:27;;;;;;;2.67;2.47;;;17.60;44.70;;;;;;5016678;28;20209;-83
2023/12/09 09:17:55;;;;;;;2.60;2.10;;;17.60;44.70;;;;;;5016705;28;20292;-82
2023/12/09 09:20:23;;;;;;;2.97;2.50;;;17.60;44.70;;;;;;5016444;28;20204;-83
2023/12/09 09:22:50;;;;;;;2.65;2.45;;;17.60;44.80;;;;;;5016309;28;20197;-82
2023/12/09 09:25:17;;;;;;;2.78;2.50;;;17.60;44.80;;;;;;5016226;28;20204;-82
2023/12/09 09:27:44;;;;;;;3.03;2.10;;;17.60;44.80;;;;;;5016522;28;20710;-82
2023/12/09 09:30:13;;;;;;;2.47;2.28;;;17.60;44.80;;;;;;5016607;28;20259;-82
2023/12/09 09:32:40;;;;;;;2.72;2.53;;;17.60;44.80;;;;;;5016161;28;20247;-82
2023/12/09 09:35:09;;;;;;;2.70;2.50;;;17.60;44.80;;;;;;5016240;28;20282;-82
2023/12/09 09:37:36;;;;;;;3.13;2.83;;;17.60;44.80;;;;;;5016705;28;20275;-83
2023/12/09 09:40:04;;;;;;;2.88;2.55;;;17.60;44.70;;;;;;5017466;28;20209;-82
2023/12/09 09:42:35;;;;;;;2.50;2.25;;;17.60;44.80;;;;;;5018145;28;20219;-82
2023/12/09 09:45:08;;;;;;;2.70;2.50;;;17.60;45.40;;;;;;5018011;28;20714;-82
2023/12/09 09:47:37;;;;;;;2.70;2.50;;;17.60;44.80;;;;;;5018401;28;20231;-83
2023/12/09 09:50:05;;;;;;;2.88;2.60;;;17.60;44.90;;;;;;5017454;28;20199;-82
2023/12/09 09:52:34;;;;;;;2.80;2.53;;;17.70;44.80;;;;;;5017557;28;20648;-83
2023/12/09 09:55:01;;;;;;;2.67;2.38;;;17.60;44.60;;;;;;5017030;28;20263;-82
2023/12/09 09:57:28;;;;;;;2.92;2.47;;;17.70;44.70;;;;;;5015718;28;20762;-82
2023/12/09 09:59:56;;;;;;;2.85;2.60;;;17.60;44.60;;;;;;5015725;28;20235;-82
2023/12/09 10:02:23;;;;;;;2.63;2.42;;;17.70;44.60;;;;;;5015322;28;20200;-82
2023/12/09 10:04:50;;;;;;;2.30;2.10;;;17.70;44.50;;;;;;5014852;28;20283;-82
2023/12/09 10:07:17;;;;;;;2.65;2.40;;;17.70;44.30;;;;;;5016255;28;20252;-82
2023/12/09 10:09:45;;;;;;;2.80;2.60;;;17.70;44.50;;;;;;5016498;28;20220;-82
2023/12/09 10:12:13;;;;;;;2.58;2.38;;;17.80;44.50;;;;;;5016316;28;20228;-82
2023/12/09 10:14:40;;;;;;;2.92;2.40;;;17.80;44.50;;;;;;5015640;28;20232;-82
2023/12/09 10:17:07;;;;;;;2.53;2.33;;;17.80;44.40;;;;;;5015293;28;20216;-82
2023/12/09 10:19:35;;;;;;;3.08;2.55;;;17.80;44.40;;;;;;5015749;28;20584;-82
2023/12/09 10:22:01;;;;;;;3.20;2.33;;;17.70;44.40;;;;;;4998729;28;20204;-82
2023/12/09 10:24:28;;;;;;;2.60;2.40;;;17.70;44.40;;;;;;5015084;28;20193;-82
2023/12/09 10:26:57;;;;;;;2.70;2.50;;;17.70;44.50;;;;;;5014723;28;20217;-82
2023/12/09 10:29:24;;;;;;;2.90;2.70;;;17.80;44.70;;;;;;5015864;28;20204;-82
2023/12/09 10:31:51;;;;;;;2.75;2.47;;;17.80;44.60;;;;;;5015884;28;20671;-82
2023/12/09 10:34:19;;;;;;;2.83;2.33;;;17.70;44.50;;;;;;5014553;28;20334;-82
2023/12/09 10:36:46;;;;;;;2.88;2.58;;;17.80;44.70;;;;;;5014279;28;20307;-82
2023/12/09 10:39:13;;;;;;;2.85;2.55;;;17.80;44.60;;;;;;5014656;28;20192;-82
2023/12/09 10:41:40;;;;;;;2.67;2.47;;;17.80;44.60;;;;;;5014539;28;20255;-82
2023/12/09 10:44:09;;;;;;;2.75;2.50;;;17.80;44.70;;;;;;4999158;28;20648;-82
2023/12/09 10:46:35;;;;;;;2.72;2.53;;;17.80;44.70;;;;;;5015116;28;20585;-83
2023/12/09 10:49:03;;;;;;;2.60;2.40;;;17.90;44.70;;;;;;5014750;28;20196;-83
2023/12/09 10:51:30;;;;;;;2.47;2.28;;;17.80;44.60;;;;;;5017620;28;20532;-82
2023/12/09 10:53:57;;;;;;;2.53;2.20;;;17.90;44.50;;;;;;5016544;28;20271;-83
2023/12/09 10:56:24;;;;;;;2.50;2.30;;;17.90;44.50;;;;;;5017117;28;20225;-83
2023/12/09 10:58:51;;;;;;;2.60;2.38;;;17.90;44.40;;;;;;5017615;28;20201;-83
2023/12/09 11:01:20;;;;;;;2.47;2.28;;;17.90;44.30;;;;;;5019726;28;20280;-83
2023/12/09 11:03:47;;;;;;;2.97;2.47;;;18.00;44.50;;;;;;5017231;28;20203;-82
2023/12/09 11:06:14;;;;;;;2.70;2.50;;;18.00;44.40;;;;;;5015918;28;20220;-83
2023/12/09 11:08:41;;;;;;;2.63;2.42;;;18.00;44.30;;;;;;5016027;28;20197;-82
2023/12/09 11:11:08;;;;;;;2.80;2.60;;;18.00;44.20;;;;;;5015400;28;20214;-82
2023/12/09 11:13:35;;;;;;;2.42;2.22;;;18.00;44.20;;;;;;5014639;28;20216;-82
2023/12/09 11:16:09;;;;;;;2.45;2.25;;;18.00;44.20;;;;;;5014934;28;20228;-82
2023/12/09 11:18:48;;;;;;;2.60;2.38;;;18.00;44.20;;;;;;5014654;28;20204;-82
2023/12/09 11:21:17;;;;;;;3.05;2.20;;;18.10;44.30;;;;;;5015846;28;20189;-82
2023/12/09 11:23:46;;;;;;;2.53;2.00;;;18.10;44.30;;;;;;5014942;28;20197;-82
2023/12/09 11:26:17;;;;;;;2.28;2.08;;;18.20;44.40;;;;;;5014423;28;20220;-82
2023/12/09 11:28:59;;;;;;;2.40;2.20;;;18.10;44.20;;;;;;5014288;28;20624;-82
2023/12/09 11:31:33;;;;;;;2.42;2.20;;;18.20;44.40;;;;;;4998590;28;20291;-82
2023/12/09 11:34:02;;;;;;;2.95;2.45;;;18.10;44.30;;;;;;5014908;28;20213;-82
2023/12/09 11:36:29;;;;;;;2.72;2.33;;;18.10;44.30;;;;;;5014609;28;20588;-82
2023/12/09 11:38:56;;;;;;;3.00;2.80;;;18.20;44.40;;;;;;5014221;28;20242;-82
2023/12/09 11:41:23;;;;;;;2.63;2.45;;;18.20;44.30;;;;;;5014637;28;20597;-82
2023/12/09 11:43:50;;;;;;;2.70;2.50;;;18.20;44.40;;;;;;5013480;28;20231;-82
2023/12/09 11:46:17;;;;;;;2.60;2.40;;;18.20;44.40;;;;;;5013427;28;20274;-82
2023/12/09 11:48:44;;;;;;;2.47;2.28;;;18.20;44.40;;;;;;5013446;28;20686;-82
2023/12/09 11:51:13;;;;;;;2.58;2.33;;;18.20;44.30;;;;;;5013351;28;20208;-82
2023/12/09 11:53:52;;;;;;;3.35;2.70;;;18.20;44.40;;;;;;5013342;28;20271;-82
2023/12/09 11:56:19;;;;;;;2.70;2.50;;;18.20;44.40;;;;;;5014490;28;20209;-82
2023/12/09 11:58:46;;;;;;;3.10;2.80;;;18.20;45.00;;;;;;5013101;28;20223;-82
2023/12/09 12:01:13;;;;;;;2.50;2.30;;;18.20;44.30;;;;;;5015646;28;20655;-83
2023/12/09 12:03:41;;;;;;;2.80;2.20;;;18.20;44.40;;;;;;5015558;28;20337;-82
2023/12/09 12:06:08;;;;;;;2.45;2.20;;;18.20;44.40;;;;;;5013170;28;20282;-82
2023/12/09 12:08:36;;;;;;;2.63;2.10;;;18.20;44.40;;;;;;5013463;28;20196;-82
2023/12/09 12:11:04;;;;;;;2.55;2.35;;;18.30;44.40;;;;;;5013260;28;20594;-82
2023/12/09 12:13:31;;;;;;;2.42;2.15;;;18.30;44.40;;;;;;5013143;28;20697;-82
2023/12/09 12:15:58;;;;;;;2.40;2.20;;;18.30;44.40;;;;;;5014343;28;20300;-82
2023/12/09 12:18:26;;;;;;;2.25;1.92;;;18.30;44.40;;;;;;5013284;28;20239;-82
2023/12/09 12:20:53;;;;;;;1.90;1.80;;;18.30;44.40;;;;;;5012970;28;20231;-82
2023/12/09 12:23:20;;;;;;;1.90;1.80;;;18.30;44.40;;;;;;5014235;28;20195;-83
2023/12/09 12:25:51;;;;;;;2.22;2.03;;;18.30;44.40;;;;;;5013383;28;20661;-83
2023/12/09 12:28:18;;;;;;;1.73;1.60;;;18.30;44.20;;;;;;5013476;28;20280;-82
2023/12/09 12:30:45;;;;;;;2.10;1.90;;;18.40;44.20;;;;;;4996901;28;20247;-82
2023/12/09 12:33:12;;;;;;;1.63;1.52;;;18.40;44.00;;;;;;5012985;28;20287;-82
2023/12/09 12:35:39;;;;;;;1.70;1.60;;;18.40;44.00;;;;;;4997055;28;20221;-82
2023/12/09 12:38:07;;;;;;;1.70;1.60;;;18.50;44.00;;;;;;5013589;28;20201;-82
2023/12/09 12:40:34;;;;;;;1.70;1.60;;;18.40;43.80;;;;;;5014049;28;20204;-82
2023/12/09 12:43:05;;;;;;;1.90;1.80;;;18.40;43.80;;;;;;5014496;28;20189;-82
2023/12/09 12:45:33;;;;;;;1.80;1.70;;;18.50;43.80;;;;;;5014031;28;20212;-82
2023/12/09 12:48:00;;;;;;;2.13;1.80;;;18.50;43.80;;;;;;5014583;28;20201;-82
2023/12/09 12:50:27;;;;;;;1.60;1.50;;;18.40;43.70;;;;;;5013227;28;20208;-82